Time;durP1;ratioP1;P1;durP2;ratioP2;P2;SDS_P1;SDS_P2;PMS_P1;PMS_P2;Temp;Humidity;BMP_temperature;BMP_pressure;BME280_temperature;BME280_humidity;BME280_pressure;Samples;Min_cycle;Max_cycle;Signal;HPM_P1;HPM_P2
2024/01/12 00:00:02;;;;;;;74.45;41.60;;;-3.70;99.90;;;;;;4958036;29;20023;-76
2024/01/12 00:02:38;;;;;;;76.82;41.63;;;-3.70;99.90;;;;;;4957428;29;20490;-75
2024/01/12 00:05:04;;;;;;;78.78;43.80;;;-3.60;99.90;;;;;;4964600;28;20045;-74
2024/01/12 00:07:30;;;;;;;73.35;40.60;;;-3.60;99.90;;;;;;4977615;28;20047;-74
2024/01/12 00:09:55;;;;;;;70.82;43.00;;;-3.70;99.90;;;;;;4977548;28;20029;-76
2024/01/12 00:12:21;;;;;;;73.15;41.75;;;-3.70;99.90;;;;;;4973745;28;20038;-76
2024/01/12 00:14:47;;;;;;;84.75;44.58;;;-3.60;99.90;;;;;;4972289;28;20026;-77
2024/01/12 00:17:13;;;;;;;75.82;42.85;;;-3.60;99.90;;;;;;4977018;28;20394;-74
2024/01/12 00:19:39;;;;;;;83.18;45.13;;;-3.60;99.90;;;;;;4977484;28;20386;-77
2024/01/12 00:22:05;;;;;;;76.25;43.60;;;-3.60;99.90;;;;;;4976782;28;20031;-75
2024/01/12 00:24:31;;;;;;;80.40;42.67;;;-3.60;99.90;;;;;;4969513;28;20035;-74
2024/01/12 00:26:56;;;;;;;80.75;43.42;;;-3.50;99.90;;;;;;4972425;28;20031;-77
2024/01/12 00:29:25;;;;;;;85.28;46.72;;;-3.60;99.90;;;;;;4965953;28;20086;-75
2024/01/12 00:31:51;;;;;;;86.18;45.95;;;-3.50;99.90;;;;;;4974348;28;20034;-76
2024/01/12 00:34:16;;;;;;;89.43;46.40;;;-3.50;99.90;;;;;;4972339;28;20034;-76
2024/01/12 00:36:42;;;;;;;88.28;46.47;;;-3.50;99.90;;;;;;4970061;28;20026;-74
2024/01/12 00:39:08;;;;;;;93.43;49.72;;;-3.50;99.90;;;;;;4976386;28;20029;-76
2024/01/12 00:41:34;;;;;;;89.40;46.38;;;-3.40;99.90;;;;;;4976370;28;20553;-76
2024/01/12 00:44:01;;;;;;;88.78;45.85;;;-3.40;99.90;;;;;;4977069;28;20161;-77
2024/01/12 00:46:27;;;;;;;89.53;47.03;;;-3.40;99.90;;;;;;4976789;28;20026;-76
2024/01/12 00:48:53;;;;;;;94.53;47.92;;;-3.30;99.90;;;;;;4976880;28;20030;-77
2024/01/12 00:51:19;;;;;;;94.80;45.50;;;-3.30;99.90;;;;;;4964068;28;20027;-76
2024/01/12 00:53:45;;;;;;;84.75;45.40;;;-3.30;99.90;;;;;;4972931;28;20049;-74
2024/01/12 00:56:10;;;;;;;85.15;45.45;;;-3.20;99.90;;;;;;4976618;28;20015;-76
2024/01/12 00:58:36;;;;;;;83.97;44.72;;;-3.20;99.90;;;;;;4973936;28;20042;-77
2024/01/12 01:01:03;;;;;;;88.88;48.55;;;-3.10;99.90;;;;;;4966509;28;20023;-75
2024/01/12 01:03:29;;;;;;;89.68;47.33;;;-3.10;99.90;;;;;;4976038;28;20030;-76
2024/01/12 01:05:55;;;;;;;80.65;44.72;;;-3.10;99.90;;;;;;4976203;28;20181;-75
2024/01/12 01:08:21;;;;;;;86.90;46.47;;;-3.00;99.90;;;;;;4970283;28;20114;-75
2024/01/12 01:10:47;;;;;;;93.68;47.67;;;-3.00;99.90;;;;;;4974380;28;20027;-73
2024/01/12 01:13:14;;;;;;;87.78;47.28;;;-3.00;99.90;;;;;;4968330;28;20069;-74
2024/01/12 01:15:40;;;;;;;88.47;45.40;;;-3.00;99.90;;;;;;4969490;28;20368;-73
2024/01/12 01:18:06;;;;;;;90.65;46.78;;;-3.00;99.90;;;;;;4965665;28;20102;-76
2024/01/12 01:20:33;;;;;;;88.43;47.25;;;-3.00;99.90;;;;;;4975974;28;20391;-74
2024/01/12 01:22:58;;;;;;;81.85;44.33;;;-2.90;99.90;;;;;;4976435;28;20368;-75
2024/01/12 01:25:24;;;;;;;92.28;44.97;;;-3.00;99.90;;;;;;4976039;28;20118;-75
2024/01/12 01:27:50;;;;;;;88.45;44.20;;;-2.90;99.90;;;;;;4976078;28;20435;-77
2024/01/12 01:30:16;;;;;;;83.88;44.78;;;-3.00;99.90;;;;;;4975719;28;20101;-76
2024/01/12 01:32:42;;;;;;;89.07;46.85;;;-3.00;99.90;;;;;;4976222;28;20126;-77
2024/01/12 01:35:08;;;;;;;84.38;45.38;;;-3.00;99.90;;;;;;4975625;28;20522;-76
2024/01/12 01:37:34;;;;;;;92.97;46.55;;;-3.00;99.90;;;;;;4976045;28;20042;-74
2024/01/12 01:40:02;;;;;;;88.32;44.25;;;-3.00;99.90;;;;;;4975277;28;20053;-74
2024/01/12 01:42:28;;;;;;;72.30;41.33;;;-3.10;99.90;;;;;;4975928;28;20085;-73
2024/01/12 01:44:54;;;;;;;89.47;43.47;;;-3.10;99.90;;;;;;4958070;28;20039;-73
2024/01/12 01:47:19;;;;;;;84.50;43.08;;;-3.10;99.90;;;;;;4975802;28;20521;-78
2024/01/12 01:49:46;;;;;;;79.22;41.88;;;-3.10;99.90;;;;;;4975497;28;20126;-75
2024/01/12 01:52:12;;;;;;;94.88;46.42;;;-3.20;99.90;;;;;;4975668;28;20023;-76
2024/01/12 01:54:39;;;;;;;74.65;43.50;;;-3.20;99.90;;;;;;4975585;28;20498;-75
2024/01/12 01:57:05;;;;;;;89.20;44.92;;;-3.20;99.90;;;;;;4975502;28;20022;-73
2024/01/12 01:59:31;;;;;;;84.93;44.45;;;-3.20;99.90;;;;;;4975571;28;20466;-74
2024/01/12 02:01:59;;;;;;;86.65;41.78;;;-3.10;99.90;;;;;;4975577;28;20045;-75
2024/01/12 02:04:25;;;;;;;76.93;41.03;;;-3.20;99.90;;;;;;4975102;28;20031;-73
2024/01/12 02:06:51;;;;;;;78.78;39.15;;;-3.20;99.90;;;;;;4975394;28;20478;-76
2024/01/12 02:09:17;;;;;;;76.85;41.78;;;-3.20;99.90;;;;;;4975130;28;20478;-75
2024/01/12 02:11:43;;;;;;;75.40;38.60;;;-3.10;99.90;;;;;;4965858;28;20032;-77
2024/01/12 02:14:09;;;;;;;69.07;34.92;;;-3.20;99.90;;;;;;4971863;28;20019;-75
2024/01/12 02:16:35;;;;;;;77.22;38.78;;;-3.20;99.90;;;;;;4975331;28;20034;-77
2024/01/12 02:19:01;;;;;;;73.68;38.70;;;-3.10;99.90;;;;;;4974746;28;20109;-76
2024/01/12 02:21:28;;;;;;;81.30;42.50;;;-3.10;99.90;;;;;;4975265;28;20194;-75
2024/01/12 02:23:54;;;;;;;78.47;42.28;;;-3.10;99.90;;;;;;4975130;28;20031;-75
2024/01/12 02:26:20;;;;;;;77.40;40.40;;;-3.00;99.90;;;;;;4975059;28;20098;-77
2024/01/12 02:28:47;;;;;;;72.63;38.83;;;-3.10;99.90;;;;;;4974724;28;20034;-74
2024/01/12 02:31:14;;;;;;;70.72;38.08;;;-3.00;99.90;;;;;;4975347;28;20463;-74
2024/01/12 02:33:39;;;;;;;65.15;38.88;;;-3.00;99.90;;;;;;4974739;28;20027;-73
2024/01/12 02:36:06;;;;;;;69.32;37.63;;;-3.00;99.90;;;;;;4974755;28;20027;-74
2024/01/12 02:38:31;;;;;;;62.65;37.25;;;-3.00;99.90;;;;;;4974616;28;20038;-76
2024/01/12 02:40:57;;;;;;;69.57;39.25;;;-3.00;99.90;;;;;;4974919;28;20438;-76
2024/01/12 02:43:23;;;;;;;68.60;38.60;;;-2.90;99.90;;;;;;4974450;28;20505;-73
2024/01/12 02:45:49;;;;;;;68.22;37.97;;;-2.90;99.90;;;;;;4974965;28;20023;-76
2024/01/12 02:48:15;;;;;;;73.05;36.95;;;-2.80;99.90;;;;;;4974707;28;20019;-76
2024/01/12 02:50:41;;;;;;;63.38;35.40;;;-2.80;99.90;;;;;;4974554;28;20027;-76
2024/01/12 02:53:07;;;;;;;68.00;35.40;;;-2.80;99.90;;;;;;4957329;28;20038;-75
2024/01/12 02:55:32;;;;;;;67.93;36.88;;;-2.80;99.90;;;;;;4974441;28;20015;-77
2024/01/12 02:57:58;;;;;;;67.05;34.65;;;-2.80;99.90;;;;;;4974341;28;20050;-75
2024/01/12 03:00:24;;;;;;;60.38;34.20;;;-2.70;99.90;;;;;;4974559;28;20058;-75
2024/01/12 03:02:50;;;;;;;64.03;31.40;;;-2.60;99.90;;;;;;4973136;28;20053;-75
2024/01/12 03:05:16;;;;;;;62.88;33.30;;;-2.60;99.90;;;;;;4973332;28;20621;-76
2024/01/12 03:07:42;;;;;;;63.78;34.08;;;-2.60;99.90;;;;;;4974152;28;20039;-74
2024/01/12 03:10:08;;;;;;;67.95;34.45;;;-2.50;99.90;;;;;;4956464;28;20035;-77
2024/01/12 03:12:34;;;;;;;59.25;32.67;;;-2.50;99.90;;;;;;4973490;28;20534;-76
2024/01/12 03:15:00;;;;;;;60.53;33.78;;;-2.50;99.90;;;;;;4974068;28;20027;-74
2024/01/12 03:17:26;;;;;;;63.90;32.22;;;-2.50;99.90;;;;;;4973681;28;20398;-75
2024/01/12 03:19:52;;;;;;;58.20;30.05;;;-2.40;99.90;;;;;;4974094;28;20019;-74
2024/01/12 03:22:18;;;;;;;48.05;28.25;;;-2.40;99.90;;;;;;4974086;28;20051;-74
2024/01/12 03:24:43;;;;;;;55.20;30.75;;;-2.30;99.90;;;;;;4973945;28;20034;-74
2024/01/12 03:27:09;;;;;;;57.17;30.40;;;-2.30;99.90;;;;;;4974084;28;20019;-74
2024/01/12 03:29:35;;;;;;;54.15;30.95;;;-2.30;99.90;;;;;;4974252;28;20030;-75
2024/01/12 03:32:01;;;;;;;50.72;29.65;;;-2.30;99.90;;;;;;4975855;28;20370;-75
2024/01/12 03:34:27;;;;;;;51.47;29.70;;;-2.30;99.90;;;;;;4978175;28;20356;-73
2024/01/12 03:36:53;;;;;;;55.72;29.25;;;-2.20;99.90;;;;;;4977880;28;20055;-73
2024/01/12 03:39:19;;;;;;;52.15;30.00;;;-2.20;99.90;;;;;;4978100;28;20031;-75
2024/01/12 03:41:44;;;;;;;45.85;28.00;;;-2.20;99.90;;;;;;4977985;28;21982;-75
2024/01/12 03:44:10;;;;;;;52.67;30.65;;;-2.30;99.90;;;;;;4978026;28;20035;-75
2024/01/12 03:46:36;;;;;;;49.35;27.83;;;-2.20;99.90;;;;;;4977927;28;20455;-74
2024/01/12 03:49:02;;;;;;;52.50;29.08;;;-2.30;99.90;;;;;;4978014;28;20023;-75
2024/01/12 03:51:28;;;;;;;45.10;29.38;;;-2.30;99.90;;;;;;4977748;28;20026;-75
2024/01/12 03:53:54;;;;;;;51.53;28.80;;;-2.30;99.90;;;;;;4978360;28;20026;-75
2024/01/12 03:56:20;;;;;;;51.45;27.33;;;-2.30;99.90;;;;;;4977841;28;20023;-76
2024/01/12 03:58:46;;;;;;;52.90;29.85;;;-2.30;99.90;;;;;;4977579;28;20037;-77
2024/01/12 04:01:12;;;;;;;52.30;29.60;;;-2.30;99.90;;;;;;4977402;28;20026;-72
2024/01/12 04:03:39;;;;;;;47.53;26.83;;;-2.30;99.90;;;;;;4977508;28;20379;-74
2024/01/12 04:06:09;;;;;;;52.08;28.35;;;-2.30;99.90;;;;;;4977123;28;20047;-78
2024/01/12 04:08:35;;;;;;;49.53;29.15;;;-2.30;99.90;;;;;;4977496;28;20066;-74
2024/01/12 04:11:01;;;;;;;50.28;30.75;;;-2.30;99.90;;;;;;4977194;28;20050;-76
2024/01/12 04:13:27;;;;;;;53.08;30.35;;;-2.30;99.90;;;;;;4977412;28;20031;-76
2024/01/12 04:15:53;;;;;;;54.92;30.48;;;-2.30;99.90;;;;;;4977403;28;20042;-74
2024/01/12 04:18:20;;;;;;;53.78;30.08;;;-2.30;99.90;;;;;;4972919;28;20027;-75
2024/01/12 04:20:46;;;;;;;55.40;31.88;;;-2.30;99.90;;;;;;4977144;28;20105;-76
2024/01/12 04:23:12;;;;;;;55.60;30.75;;;-2.30;99.90;;;;;;4976383;28;20118;-74
2024/01/12 04:25:38;;;;;;;54.20;29.88;;;-2.30;99.90;;;;;;4958974;28;20372;-74
2024/01/12 04:28:04;;;;;;;58.90;30.30;;;-2.30;99.90;;;;;;4973630;28;20093;-76
2024/01/12 04:30:29;;;;;;;51.97;28.98;;;-2.30;99.90;;;;;;4977253;28;20380;-74
2024/01/12 04:32:55;;;;;;;51.40;28.38;;;-2.40;99.90;;;;;;4977233;28;20027;-76
2024/01/12 04:35:21;;;;;;;51.22;30.80;;;-2.40;99.90;;;;;;4976672;28;20466;-74
2024/01/12 04:37:47;;;;;;;51.35;29.63;;;-2.40;99.90;;;;;;4976929;28;20513;-76
2024/01/12 04:40:13;;;;;;;58.67;30.95;;;-2.40;99.90;;;;;;4975924;28;20371;-77
2024/01/12 04:42:39;;;;;;;53.72;29.05;;;-2.40;99.90;;;;;;4976631;28;20470;-75
2024/01/12 04:45:05;;;;;;;52.67;29.67;;;-2.50;99.90;;;;;;4976913;28;20019;-76
2024/01/12 04:47:31;;;;;;;46.72;26.92;;;-2.50;99.90;;;;;;4976303;28;20031;-75
2024/01/12 04:49:56;;;;;;;51.10;28.10;;;-2.50;99.90;;;;;;4976422;28;20475;-76
2024/01/12 04:52:22;;;;;;;51.15;28.33;;;-2.50;99.90;;;;;;4976423;28;20066;-76
2024/01/12 04:54:48;;;;;;;49.00;27.92;;;-2.50;99.90;;;;;;4976479;28;20125;-76
2024/01/12 04:57:14;;;;;;;49.55;28.38;;;-2.60;99.90;;;;;;4976446;28;20081;-74
2024/01/12 04:59:40;;;;;;;49.70;28.08;;;-2.60;99.90;;;;;;4976532;28;20102;-74
2024/01/12 05:02:07;;;;;;;51.67;27.90;;;-2.60;99.90;;;;;;4976464;28;20121;-75
2024/01/12 05:04:33;;;;;;;51.50;29.73;;;-2.60;99.90;;;;;;4976159;28;20035;-75
2024/01/12 05:06:58;;;;;;;54.75;29.83;;;-2.60;99.90;;;;;;4976318;28;20537;-74
2024/01/12 05:09:25;;;;;;;50.95;28.00;;;-2.60;99.90;;;;;;4976280;28;20019;-74
2024/01/12 05:11:51;;;;;;;56.08;32.10;;;-2.60;99.90;;;;;;4976094;28;20112;-76
2024/01/12 05:14:16;;;;;;;53.83;32.33;;;-2.60;99.90;;;;;;4976240;28;20042;-77
2024/01/12 05:16:42;;;;;;;54.30;29.30;;;-2.60;99.90;;;;;;4976362;28;20434;-74
2024/01/12 05:19:08;;;;;;;51.17;32.15;;;-2.60;99.90;;;;;;4966414;28;20478;-76
2024/01/12 05:21:34;;;;;;;50.17;28.42;;;-2.50;99.90;;;;;;4957043;29;20027;-73
2024/01/12 05:24:00;;;;;;;47.58;27.83;;;-2.60;99.90;;;;;;4963188;28;20031;-73
2024/01/12 05:26:26;;;;;;;49.08;29.08;;;-2.50;99.90;;;;;;4976270;28;20019;-74
2024/01/12 05:28:52;;;;;;;52.40;27.42;;;-2.50;99.90;;;;;;4963321;28;20038;-75
2024/01/12 05:31:18;;;;;;;49.40;27.80;;;-2.50;99.90;;;;;;4972735;28;20019;-72
2024/01/12 05:33:44;;;;;;;44.72;27.40;;;-2.40;99.90;;;;;;4963574;28;20371;-72
2024/01/12 05:36:14;;;;;;;44.88;26.38;;;-2.40;99.90;;;;;;4975817;28;20038;-74
2024/01/12 05:38:40;;;;;;;45.25;25.48;;;-2.30;99.90;;;;;;4975995;28;20033;-73
2024/01/12 05:41:06;;;;;;;44.95;26.17;;;-2.40;99.90;;;;;;4975823;28;20034;-73
2024/01/12 05:43:32;;;;;;;46.13;27.38;;;-2.30;99.90;;;;;;4976023;28;20043;-75
2024/01/12 05:45:58;;;;;;;47.55;27.17;;;-2.30;99.90;;;;;;4975817;28;20026;-74
2024/01/12 05:48:24;;;;;;;48.08;26.90;;;-2.30;99.90;;;;;;4975755;28;20030;-73
2024/01/12 05:50:49;;;;;;;42.00;24.52;;;-2.20;99.90;;;;;;4975220;28;20050;-74
2024/01/12 05:53:16;;;;;;;40.90;24.65;;;-2.20;99.90;;;;;;4975781;28;20394;-74
2024/01/12 05:55:42;;;;;;;43.35;24.75;;;-2.20;99.90;;;;;;4974610;28;20023;-75
2024/01/12 05:58:08;;;;;;;43.05;22.27;;;-2.10;99.90;;;;;;4975635;28;20034;-74
2024/01/12 06:00:34;;;;;;;43.78;23.98;;;-2.20;99.90;;;;;;4975203;28;20541;-74
2024/01/12 06:03:00;;;;;;;39.95;23.75;;;-2.10;99.90;;;;;;4975014;28;20035;-76
2024/01/12 06:05:25;;;;;;;40.55;23.85;;;-2.10;99.90;;;;;;4975124;28;20051;-74
2024/01/12 06:07:51;;;;;;;44.67;26.15;;;-2.10;99.90;;;;;;4975025;28;20027;-73
2024/01/12 06:10:17;;;;;;;39.90;23.20;;;-2.10;99.90;;;;;;4975072;28;20023;-74
2024/01/12 06:12:43;;;;;;;42.35;24.63;;;-2.10;99.90;;;;;;4974826;28;20459;-75
2024/01/12 06:15:09;;;;;;;38.10;22.42;;;-2.10;99.90;;;;;;4974901;28;20031;-74
2024/01/12 06:17:35;;;;;;;48.85;25.38;;;-2.00;99.90;;;;;;4975057;28;20035;-75
2024/01/12 06:20:01;;;;;;;45.55;23.70;;;-2.00;99.90;;;;;;4975435;28;20030;-74
2024/01/12 06:22:27;;;;;;;40.72;25.13;;;-2.00;99.90;;;;;;4974610;28;20053;-74
2024/01/12 06:24:52;;;;;;;44.85;23.92;;;-1.90;99.90;;;;;;4974962;28;20428;-73
2024/01/12 06:27:18;;;;;;;44.53;26.77;;;-1.90;99.90;;;;;;4974729;28;20470;-77
2024/01/12 06:29:47;;;;;;;43.92;25.45;;;-1.90;99.90;;;;;;4974893;28;20101;-77
2024/01/12 06:32:13;;;;;;;46.67;24.83;;;-1.90;99.90;;;;;;4969343;28;20111;-72
2024/01/12 06:34:39;;;;;;;42.78;24.23;;;-1.90;99.90;;;;;;4949461;28;20427;-73
2024/01/12 06:37:05;;;;;;;41.28;24.38;;;-1.90;99.90;;;;;;4964650;28;20035;-73
2024/01/12 06:39:31;;;;;;;44.33;26.52;;;-1.90;99.90;;;;;;4974688;28;20023;-73
2024/01/12 06:41:58;;;;;;;45.22;27.08;;;-1.80;99.90;;;;;;4974434;28;20387;-74
2024/01/12 06:44:24;;;;;;;47.33;28.13;;;-1.80;99.90;;;;;;4974463;28;20118;-76
2024/01/12 06:46:55;;;;;;;48.53;29.38;;;-1.80;99.90;;;;;;4973655;28;20150;-75
2024/01/12 06:49:21;;;;;;;47.30;27.75;;;-1.80;99.90;;;;;;4974163;28;20035;-74
2024/01/12 06:51:47;;;;;;;46.78;27.13;;;-1.80;99.90;;;;;;4973919;28;20033;-74
2024/01/12 06:54:13;;;;;;;49.65;28.23;;;-1.70;99.90;;;;;;4974454;28;20385;-73
2024/01/12 06:56:39;;;;;;;45.53;27.52;;;-1.70;99.90;;;;;;4974131;28;20034;-74
2024/01/12 06:59:05;;;;;;;53.83;30.00;;;-1.70;99.90;;;;;;4974592;28;20031;-73
2024/01/12 07:01:31;;;;;;;50.75;31.50;;;-1.70;99.90;;;;;;4974459;28;20026;-76
2024/01/12 07:03:57;;;;;;;54.05;30.88;;;-1.70;99.90;;;;;;4973867;28;20117;-76
2024/01/12 07:06:26;;;;;;;54.10;30.77;;;-1.60;99.90;;;;;;4968005;28;20049;-76
2024/01/12 07:08:52;;;;;;;61.67;31.83;;;-1.60;99.90;;;;;;4974069;28;20031;-73
2024/01/12 07:11:19;;;;;;;53.50;30.33;;;-1.60;99.90;;;;;;4974069;28;20430;-74
2024/01/12 07:13:45;;;;;;;59.63;34.72;;;-1.60;99.90;;;;;;4972709;28;20019;-74
2024/01/12 07:16:11;;;;;;;46.78;28.20;;;-1.50;99.90;;;;;;4974051;28;20106;-74
2024/01/12 07:18:37;;;;;;;64.00;33.28;;;-1.50;99.90;;;;;;4973931;28;20039;-74
2024/01/12 07:21:03;;;;;;;50.88;29.15;;;-1.50;99.90;;;;;;4974381;28;20026;-73
2024/01/12 07:23:32;;;;;;;53.95;30.92;;;-1.40;99.90;;;;;;4973919;28;20031;-74
2024/01/12 07:25:58;;;;;;;54.55;33.65;;;-1.50;99.90;;;;;;4973937;28;20051;-73
2024/01/12 07:28:27;;;;;;;48.70;28.02;;;-1.40;99.90;;;;;;4974116;28;20105;-74
2024/01/12 07:30:54;;;;;;;41.20;25.15;;;-1.40;99.90;;;;;;4974376;28;20033;-74
2024/01/12 07:33:23;;;;;;;48.65;28.50;;;-1.40;99.90;;;;;;4973687;28;20038;-74
2024/01/12 07:35:49;;;;;;;41.47;25.05;;;-1.40;99.90;;;;;;4972904;28;20126;-74
2024/01/12 07:38:15;;;;;;;47.75;26.27;;;-1.40;99.90;;;;;;4973365;28;20113;-73
2024/01/12 07:40:41;;;;;;;44.03;25.67;;;-1.30;99.90;;;;;;4973916;28;20027;-73
2024/01/12 07:43:07;;;;;;;44.60;25.60;;;-1.30;99.90;;;;;;4973455;28;20039;-74
2024/01/12 07:45:32;;;;;;;45.40;27.23;;;-1.20;99.90;;;;;;4974385;28;20371;-74
2024/01/12 07:47:58;;;;;;;89.53;47.92;;;-1.20;99.90;;;;;;4973376;28;20042;-74
2024/01/12 07:50:24;;;;;;;80.53;46.03;;;-1.10;99.90;;;;;;4973497;28;20050;-76
2024/01/12 07:52:50;;;;;;;52.65;32.50;;;-1.10;99.90;;;;;;4973402;28;20058;-74
2024/01/12 07:55:16;;;;;;;49.05;28.25;;;-1.00;99.90;;;;;;4974004;28;20074;-76
2024/01/12 07:57:42;;;;;;;49.03;28.75;;;-1.00;99.90;;;;;;4972863;28;20031;-73
2024/01/12 08:00:08;;;;;;;49.42;28.48;;;-1.00;99.90;;;;;;4973882;28;20015;-77
2024/01/12 08:02:40;;;;;;;48.42;28.10;;;-1.00;99.90;;;;;;4973712;28;20479;-74
2024/01/12 08:05:07;;;;;;;50.15;30.30;;;-0.90;99.90;;;;;;4972772;28;20062;-74
2024/01/12 08:07:32;;;;;;;44.90;29.10;;;-0.80;99.90;;;;;;4973285;28;20039;-74
2024/01/12 08:09:58;;;;;;;45.75;27.17;;;-0.80;99.90;;;;;;4973749;28;20022;-74
2024/01/12 08:12:24;;;;;;;48.35;29.52;;;-0.80;99.90;;;;;;4973493;28;20023;-75
2024/01/12 08:14:50;;;;;;;48.35;29.13;;;-0.70;99.90;;;;;;4973767;28;20061;-75
2024/01/12 08:17:16;;;;;;;49.35;30.15;;;-0.80;99.90;;;;;;4970534;28;20062;-75
2024/01/12 08:19:42;;;;;;;44.92;27.63;;;-0.70;99.90;;;;;;4976329;28;20026;-74
2024/01/12 08:22:08;;;;;;;41.30;28.55;;;-0.70;99.90;;;;;;4975301;28;20046;-74
2024/01/12 08:24:34;;;;;;;54.45;31.65;;;-0.70;99.90;;;;;;4976809;28;20094;-74
2024/01/12 08:27:07;;;;;;;53.03;28.52;;;-0.70;99.90;;;;;;4959849;28;20070;-77
2024/01/12 08:29:33;;;;;;;48.97;30.08;;;-0.60;99.90;;;;;;4943309;28;20027;-75
2024/01/12 08:31:59;;;;;;;51.85;29.63;;;-0.70;99.90;;;;;;4977013;28;20025;-75
2024/01/12 08:34:25;;;;;;;49.42;30.05;;;-0.60;99.90;;;;;;4977133;28;20023;-75
2024/01/12 08:36:51;;;;;;;52.72;31.73;;;-0.50;99.90;;;;;;4976980;28;20055;-75
2024/01/12 08:39:17;;;;;;;49.33;30.45;;;-0.40;99.90;;;;;;4976037;28;20069;-75
2024/01/12 08:41:43;;;;;;;51.42;30.85;;;-0.50;99.90;;;;;;4976741;28;20046;-74
2024/01/12 08:44:11;;;;;;;48.72;29.27;;;-0.50;99.90;;;;;;4975358;28;20035;-76
2024/01/12 08:46:37;;;;;;;45.92;30.75;;;-0.40;99.90;;;;;;4959939;28;20043;-76
2024/01/12 08:49:03;;;;;;;54.70;31.38;;;-0.40;99.90;;;;;;4976614;28;20070;-74
2024/01/12 08:51:29;;;;;;;45.08;29.10;;;-0.30;99.90;;;;;;4976678;28;20027;-77
2024/01/12 08:53:55;;;;;;;48.28;29.88;;;-0.30;99.90;;;;;;4976464;28;20493;-75
2024/01/12 08:56:21;;;;;;;49.67;29.23;;;-0.10;99.90;;;;;;4966473;28;20023;-76
2024/01/12 08:58:47;;;;;;;44.13;26.63;;;-0.10;99.90;;;;;;4976754;28;20023;-74
2024/01/12 09:01:15;;;;;;;46.22;28.25;;;-0.10;99.90;;;;;;4975756;28;20387;-74
2024/01/12 09:03:41;;;;;;;51.58;29.05;;;-0.10;99.90;;;;;;4976277;28;20098;-74
2024/01/12 09:06:07;;;;;;;49.80;28.88;;;-0.10;99.90;;;;;;4976279;28;20122;-75
2024/01/12 09:08:33;;;;;;;50.13;29.90;;;-0.10;99.90;;;;;;4976407;28;20417;-76
2024/01/12 09:11:01;;;;;;;49.92;28.98;;;0.00;99.90;;;;;;4976131;28;20106;-75
2024/01/12 09:13:26;;;;;;;54.08;30.45;;;0.00;99.90;;;;;;4976472;28;20031;-74
2024/01/12 09:15:52;;;;;;;43.22;27.65;;;0.10;99.90;;;;;;4974731;28;20042;-76
2024/01/12 09:18:19;;;;;;;45.38;27.83;;;0.30;99.90;;;;;;4970774;28;20474;-75
2024/01/12 09:20:45;;;;;;;41.70;25.90;;;0.20;99.90;;;;;;4976338;28;20050;-75
2024/01/12 09:23:11;;;;;;;40.38;26.02;;;0.10;99.90;;;;;;4976035;28;20046;-76
2024/01/12 09:25:37;;;;;;;52.20;28.83;;;0.20;99.90;;;;;;4963333;28;20023;-77
2024/01/12 09:28:03;;;;;;;48.75;28.65;;;0.20;99.90;;;;;;4976145;28;20027;-75
2024/01/12 09:30:29;;;;;;;51.47;31.27;;;0.30;99.90;;;;;;4974864;28;20386;-75
2024/01/12 09:32:55;;;;;;;55.30;27.60;;;0.40;99.90;;;;;;4976176;28;20026;-75
2024/01/12 09:35:20;;;;;;;65.88;39.47;;;0.50;99.90;;;;;;4975829;28;20434;-77
2024/01/12 09:37:46;;;;;;;50.47;30.58;;;0.40;99.90;;;;;;4975765;28;20027;-76
2024/01/12 09:40:12;;;;;;;43.53;27.10;;;0.40;99.90;;;;;;4975742;28;20019;-76
2024/01/12 09:42:45;;;;;;;50.75;31.05;;;0.50;99.90;;;;;;4976022;28;20031;-75
2024/01/12 09:45:13;;;;;;;44.20;27.35;;;0.40;99.90;;;;;;4975823;28;20076;-75
2024/01/12 09:47:40;;;;;;;43.00;25.83;;;0.40;99.90;;;;;;4974986;28;20475;-74
2024/01/12 09:50:09;;;;;;;43.97;25.98;;;0.50;99.90;;;;;;4974775;28;20026;-77
2024/01/12 09:52:35;;;;;;;38.45;23.70;;;0.40;99.90;;;;;;4975183;28;20371;-77
2024/01/12 09:55:01;;;;;;;43.15;26.15;;;0.20;99.90;;;;;;4973561;28;20105;-76
2024/01/12 09:57:28;;;;;;;43.22;23.48;;;0.30;99.90;;;;;;4967607;28;20439;-76
2024/01/12 09:59:55;;;;;;;39.80;23.98;;;0.40;99.90;;;;;;4962809;28;20352;-76
2024/01/12 10:02:21;;;;;;;43.38;24.73;;;0.30;99.90;;;;;;4955989;28;20031;-76
2024/01/12 10:04:47;;;;;;;47.40;27.10;;;0.30;99.90;;;;;;4968659;28;20049;-77
2024/01/12 10:07:13;;;;;;;49.67;26.83;;;0.40;99.90;;;;;;4975377;28;20043;-76
2024/01/12 10:09:39;;;;;;;44.05;25.90;;;0.50;99.90;;;;;;4975221;28;20030;-75
2024/01/12 10:12:09;;;;;;;44.13;25.35;;;0.70;99.90;;;;;;4975138;28;20026;-76
2024/01/12 10:14:38;;;;;;;48.05;27.33;;;0.50;99.90;;;;;;4975257;28;20398;-75
2024/01/12 10:17:04;;;;;;;48.15;30.92;;;0.50;99.90;;;;;;4941889;28;20122;-78
2024/01/12 10:19:35;;;;;;;44.70;25.83;;;0.50;99.90;;;;;;4970715;28;20030;-76
2024/01/12 10:22:01;;;;;;;46.65;26.75;;;0.50;99.90;;;;;;4958028;28;20039;-77
2024/01/12 10:24:37;;;;;;;38.90;24.33;;;0.50;99.90;;;;;;4970571;28;20033;-75
2024/01/12 10:27:06;;;;;;;40.67;25.92;;;0.50;99.90;;;;;;4942692;28;20019;-75
2024/01/12 10:29:37;;;;;;;46.63;27.40;;;0.50;99.90;;;;;;4956970;28;20070;-77
2024/01/12 10:32:05;;;;;;;45.42;27.02;;;0.50;99.90;;;;;;4973920;28;20043;-77
2024/01/12 10:34:33;;;;;;;42.28;25.88;;;0.50;99.90;;;;;;4955521;28;20093;-76
2024/01/12 10:36:59;;;;;;;47.00;28.42;;;0.40;99.90;;;;;;4968837;28;20387;-78
2024/01/12 10:39:28;;;;;;;45.47;27.40;;;0.50;99.90;;;;;;4968977;28;20030;-78
2024/01/12 10:42:00;;;;;;;45.15;27.23;;;0.60;99.90;;;;;;4966540;28;20019;-78
2024/01/12 10:44:30;;;;;;;47.38;28.35;;;0.50;99.90;;;;;;4974895;28;20043;-76
2024/01/12 10:47:04;;;;;;;47.42;29.63;;;0.50;99.90;;;;;;4962332;28;20029;-77
2024/01/12 10:49:41;;;;;;;67.60;36.08;;;0.60;99.90;;;;;;4974581;28;20516;-77
2024/01/12 10:52:08;;;;;;;51.92;32.55;;;0.60;99.90;;;;;;4965866;28;20041;-77
2024/01/12 10:54:41;;;;;;;48.75;31.88;;;0.70;99.90;;;;;;4973658;28;20046;-76
2024/01/12 10:57:09;;;;;;;50.92;29.92;;;0.90;99.90;;;;;;4972550;28;20033;-77
2024/01/12 10:59:36;;;;;;;51.45;31.45;;;0.90;99.90;;;;;;4973459;28;20423;-77
2024/01/12 11:02:03;;;;;;;49.17;30.80;;;0.90;99.90;;;;;;4965289;28;20031;-77
2024/01/12 11:04:30;;;;;;;44.90;29.00;;;0.90;99.90;;;;;;4972535;28;20073;-76
2024/01/12 11:07:00;;;;;;;43.35;26.58;;;0.80;99.90;;;;;;4970487;28;20059;-78
2024/01/12 11:09:27;;;;;;;49.42;28.13;;;0.70;99.90;;;;;;4969396;28;20037;-76
2024/01/12 11:12:02;;;;;;;54.60;30.20;;;0.60;99.90;;;;;;4970670;28;20347;-77
2024/01/12 11:14:29;;;;;;;51.75;29.88;;;0.70;99.90;;;;;;4974075;28;20035;-77
2024/01/12 11:16:55;;;;;;;50.10;30.48;;;0.70;99.90;;;;;;4973865;28;20019;-76
2024/01/12 11:19:21;;;;;;;44.10;28.73;;;0.80;99.90;;;;;;4968497;28;20102;-75
2024/01/12 11:21:47;;;;;;;45.50;27.27;;;0.70;99.90;;;;;;4974406;28;20022;-76
2024/01/12 11:24:13;;;;;;;49.70;29.88;;;0.70;99.90;;;;;;4973678;28;20042;-76
2024/01/12 11:26:41;;;;;;;48.05;28.63;;;0.70;99.90;;;;;;4971576;28;20023;-76
2024/01/12 11:29:14;;;;;;;47.90;27.70;;;0.80;99.90;;;;;;4954956;28;20027;-75
2024/01/12 11:31:50;;;;;;;43.75;26.40;;;0.70;99.90;;;;;;4958320;28;20030;-76
2024/01/12 11:34:22;;;;;;;47.15;29.38;;;0.50;99.90;;;;;;4968642;28;20033;-77
2024/01/12 11:36:58;;;;;;;50.17;30.00;;;0.60;99.90;;;;;;4957674;28;20035;-76
2024/01/12 11:39:24;;;;;;;44.92;26.83;;;0.60;99.90;;;;;;4962118;28;20039;-75
2024/01/12 11:41:56;;;;;;;43.10;26.33;;;0.50;99.90;;;;;;4963125;28;20086;-76
2024/01/12 11:44:24;;;;;;;45.00;27.48;;;0.50;99.90;;;;;;4974130;28;20035;-76
2024/01/12 11:46:51;;;;;;;50.35;30.00;;;0.50;99.90;;;;;;4973940;28;20023;-75
2024/01/12 11:49:20;;;;;;;50.30;31.00;;;0.30;99.90;;;;;;4973983;28;20037;-74
2024/01/12 11:51:46;;;;;;;49.85;28.90;;;0.40;99.90;;;;;;4973715;28;20031;-75
2024/01/12 11:54:12;;;;;;;47.55;28.13;;;0.30;99.90;;;;;;4977410;28;20026;-75
2024/01/12 11:56:38;;;;;;;44.78;27.20;;;0.30;99.90;;;;;;4978180;28;20033;-76
2024/01/12 11:59:03;;;;;;;94.35;47.30;;;0.30;99.90;;;;;;4977612;28;20073;-77
2024/01/12 12:01:32;;;;;;;55.53;32.50;;;0.40;99.90;;;;;;4959928;28;20046;-77
2024/01/12 12:03:58;;;;;;;64.72;36.28;;;0.30;99.90;;;;;;4943673;28;20139;-75
2024/01/12 12:06:24;;;;;;;64.78;37.70;;;0.40;99.90;;;;;;4930489;29;20499;-75
2024/01/12 12:08:52;;;;;;;57.70;34.08;;;0.40;99.90;;;;;;4958236;29;20063;-75
2024/01/12 12:11:21;;;;;;;44.53;30.10;;;0.40;99.90;;;;;;4956975;29;20444;-75
2024/01/12 12:13:48;;;;;;;47.38;31.20;;;0.30;99.90;;;;;;4958080;29;20037;-76
2024/01/12 12:16:17;;;;;;;60.83;38.15;;;0.40;99.90;;;;;;4958219;29;20106;-75
2024/01/12 12:18:43;;;;;;;51.42;32.70;;;0.40;99.90;;;;;;4957869;29;20435;-75
2024/01/12 12:21:09;;;;;;;50.00;30.98;;;0.30;99.90;;;;;;4958168;29;20023;-76
2024/01/12 12:23:41;;;;;;;51.50;32.75;;;0.40;99.90;;;;;;4958087;29;20032;-76
2024/01/12 12:26:08;;;;;;;49.92;31.05;;;0.30;99.90;;;;;;4958078;29;20039;-77